Airport View

Enter AWOS ICAO identifier for current METAR.

ex. KFNL

KCMR 262310Z AUTO 04008KT 10SM CLR 10/M13 A3036 RMK AO2

26 Feb 2020 23:13

Frequency: 121.125

Phone: 928-635-1278

Other Area AWOS: KFLG - KSEZ - P52 - KGCN

TAF KFLG 261720Z 2618/2718 06013G23KT P6SM SKC FM262100 07010KT P6SM SKC FM270100 05005KT P6SM SKC